sensor_id;sensor_type;location;lat;lon;timestamp;P1;P2;P0
73973;PMS5003;62336;-26.094;27.994;2023-02-13T04:16:28;28;25;
73973;PMS5003;62336;-26.094;27.994;2023-02-13T04:18:52;23;20;
73973;PMS5003;62336;-26.094;27.994;2023-02-13T04:21:18;25;24;
73973;PMS5003;62336;-26.094;27.994;2023-02-13T04:23:44;21;20;
73973;PMS5003;62336;-26.094;27.994;2023-02-13T04:26:11;19;17;
73973;PMS5003;62336;-26.094;27.994;2023-02-13T04:28:36;15;15;
73973;PMS5003;62336;-26.094;27.994;2023-02-13T04:31:01;21;20;
73973;PMS5003;62336;-26.094;27.994;2023-02-13T04:33:26;14;13;
73973;PMS5003;62336;-26.094;27.994;2023-02-13T04:35:52;19;17;
73973;PMS5003;62336;-26.094;27.994;2023-02-13T04:38:17;16;15;
73973;PMS5003;62336;-26.094;27.994;2023-02-13T04:40:43;17;16;
73973;PMS5003;62336;-26.094;27.994;2023-02-13T04:43:08;17;17;
73973;PMS5003;62336;-26.094;27.994;2023-02-13T04:45:34;17;15;
73973;PMS5003;62336;-26.094;27.994;2023-02-13T04:47:59;20;17;
73973;PMS5003;62336;-26.094;27.994;2023-02-13T04:50:24;22;20;
73973;PMS5003;62336;-26.094;27.994;2023-02-13T04:52:52;18;17;
73973;PMS5003;62336;-26.094;27.994;2023-02-13T04:55:15;22;21;
73973;PMS5003;62336;-26.094;27.994;2023-02-13T04:57:40;13;13;
73973;PMS5003;62336;-26.094;27.994;2023-02-13T05:00:08;21;19;
73973;PMS5003;62336;-26.094;27.994;2023-02-13T05:02:30;17;16;
73973;PMS5003;62336;-26.094;27.994;2023-02-13T05:04:56;11;11;
73973;PMS5003;62336;-26.094;27.994;2023-02-13T05:07:21;15;14;
73973;PMS5003;62336;-26.094;27.994;2023-02-13T05:09:46;15;13;
73973;PMS5003;62336;-26.094;27.994;2023-02-13T05:12:13;12;12;
73973;PMS5003;62336;-26.094;27.994;2023-02-13T05:14:38;11;11;
73973;PMS5003;62336;-26.094;27.994;2023-02-13T05:17:04;13;13;
73973;PMS5003;62336;-26.094;27.994;2023-02-13T05:19:29;12;11;
73973;PMS5003;62336;-26.094;27.994;2023-02-13T05:21:56;8;8;
73973;PMS5003;62336;-26.094;27.994;2023-02-13T05:24:21;12;11;
73973;PMS5003;62336;-26.094;27.994;2023-02-13T05:26:47;12;10;
73973;PMS5003;62336;-26.094;27.994;2023-02-13T05:29:13;11;10;
73973;PMS5003;62336;-26.094;27.994;2023-02-13T05:31:38;9;9;
73973;PMS5003;62336;-26.094;27.994;2023-02-13T05:34:05;11;10;
73973;PMS5003;62336;-26.094;27.994;2023-02-13T05:36:30;9;8;
73973;PMS5003;62336;-26.094;27.994;2023-02-13T05:38:56;9;9;
73973;PMS5003;62336;-26.094;27.994;2023-02-13T05:41:27;12;12;
73973;PMS5003;62336;-26.094;27.994;2023-02-13T05:43:47;8;8;
73973;PMS5003;62336;-26.094;27.994;2023-02-13T05:46:13;10;9;
73973;PMS5003;62336;-26.094;27.994;2023-02-13T05:48:38;8;8;
73973;PMS5003;62336;-26.094;27.994;2023-02-13T05:51:04;14;10;
73973;PMS5003;62336;-26.094;27.994;2023-02-13T05:53:30;12;11;
73973;PMS5003;62336;-26.094;27.994;2023-02-13T05:55:55;11;11;
73973;PMS5003;62336;-26.094;27.994;2023-02-13T05:58:21;14;13;
73973;PMS5003;62336;-26.094;27.994;2023-02-13T06:00:46;10;10;
73973;PMS5003;62336;-26.094;27.994;2023-02-13T06:03:12;17;15;
73973;PMS5003;62336;-26.094;27.994;2023-02-13T06:05:37;13;13;
73973;PMS5003;62336;-26.094;27.994;2023-02-13T06:08:03;20;19;
73973;PMS5003;62336;-26.094;27.994;2023-02-13T06:10:29;19;18;
73973;PMS5003;62336;-26.094;27.994;2023-02-13T06:12:54;15;13;
73973;PMS5003;62336;-26.094;27.994;2023-02-13T06:15:21;11;10;
73973;PMS5003;62336;-26.094;27.994;2023-02-13T06:17:45;18;16;
73973;PMS5003;62336;-26.094;27.994;2023-02-13T06:20:11;13;13;
73973;PMS5003;62336;-26.094;27.994;2023-02-13T06:22:37;14;13;
73973;PMS5003;62336;-26.094;27.994;2023-02-13T06:25:02;13;13;
73973;PMS5003;62336;-26.094;27.994;2023-02-13T06:27:28;10;10;
73973;PMS5003;62336;-26.094;27.994;2023-02-13T06:29:53;15;14;
73973;PMS5003;62336;-26.094;27.994;2023-02-13T06:32:19;11;10;
73973;PMS5003;62336;-26.094;27.994;2023-02-13T06:34:45;14;14;
73973;PMS5003;62336;-26.094;27.994;2023-02-13T06:37:11;10;9;
73973;PMS5003;62336;-26.094;27.994;2023-02-13T06:39:37;9;9;
73973;PMS5003;62336;-26.094;27.994;2023-02-13T06:42:03;9;9;
73973;PMS5003;62336;-26.094;27.994;2023-02-13T06:44:28;7;6;
73973;PMS5003;62336;-26.094;27.994;2023-02-13T06:46:54;7;6;
73973;PMS5003;62336;-26.094;27.994;2023-02-13T06:49:20;10;9;
73973;PMS5003;62336;-26.094;27.994;2023-02-13T06:51:46;7;6;
73973;PMS5003;62336;-26.094;27.994;2023-02-13T06:54:12;6;5;
73973;PMS5003;62336;-26.094;27.994;2023-02-13T06:56:37;6;5;
73973;PMS5003;62336;-26.094;27.994;2023-02-13T06:59:03;4;4;
73973;PMS5003;62336;-26.094;27.994;2023-02-13T07:01:28;5;5;
73973;PMS5003;62336;-26.094;27.994;2023-02-13T07:03:54;6;5;
73973;PMS5003;62336;-26.094;27.994;2023-02-13T07:06:20;5;5;
73973;PMS5003;62336;-26.094;27.994;2023-02-13T07:08:46;7;7;
73973;PMS5003;62336;-26.094;27.994;2023-02-13T07:11:17;6;6;
73973;PMS5003;62336;-26.094;27.994;2023-02-13T07:13:38;10;9;
73973;PMS5003;62336;-26.094;27.994;2023-02-13T07:16:04;6;6;
73973;PMS5003;62336;-26.094;27.994;2023-02-13T07:18:29;7;7;
73973;PMS5003;62336;-26.094;27.994;2023-02-13T07:20:57;7;7;
73973;PMS5003;62336;-26.094;27.994;2023-02-13T07:23:21;6;6;
73973;PMS5003;62336;-26.094;27.994;2023-02-13T07:25:47;8;8;
73973;PMS5003;62336;-26.094;27.994;2023-02-13T07:28:13;8;8;
73973;PMS5003;62336;-26.094;27.994;2023-02-13T07:30:38;8;8;
73973;PMS5003;62336;-26.094;27.994;2023-02-13T07:33:04;10;10;
73973;PMS5003;62336;-26.094;27.994;2023-02-13T07:35:30;8;8;
73973;PMS5003;62336;-26.094;27.994;2023-02-13T07:37:56;9;8;
73973;PMS5003;62336;-26.094;27.994;2023-02-13T07:40:22;6;6;
73973;PMS5003;62336;-26.094;27.994;2023-02-13T07:42:48;8;6;
73973;PMS5003;62336;-26.094;27.994;2023-02-13T07:45:13;5;5;
73973;PMS5003;62336;-26.094;27.994;2023-02-13T07:47:39;7;7;
73973;PMS5003;62336;-26.094;27.994;2023-02-13T07:50:05;5;4;
73973;PMS5003;62336;-26.094;27.994;2023-02-13T07:52:31;6;6;
73973;PMS5003;62336;-26.094;27.994;2023-02-13T07:54:56;5;5;
73973;PMS5003;62336;-26.094;27.994;2023-02-13T07:57:22;5;5;
73973;PMS5003;62336;-26.094;27.994;2023-02-13T07:59:48;4;4;
73973;PMS5003;62336;-26.094;27.994;2023-02-13T08:02:14;7;7;
73973;PMS5003;62336;-26.094;27.994;2023-02-13T08:04:39;7;7;
73973;PMS5003;62336;-26.094;27.994;2023-02-13T08:07:05;9;8;
73973;PMS5003;62336;-26.094;27.994;2023-02-13T08:09:31;7;7;
73973;PMS5003;62336;-26.094;27.994;2023-02-13T08:11:57;8;7;
73973;PMS5003;62336;-26.094;27.994;2023-02-13T08:14:24;8;8;
73973;PMS5003;62336;-26.094;27.994;2023-02-13T08:16:49;8;8;
73973;PMS5003;62336;-26.094;27.994;2023-02-13T08:19:14;7;6;
73973;PMS5003;62336;-26.094;27.994;2023-02-13T08:21:40;7;7;
73973;PMS5003;62336;-26.094;27.994;2023-02-13T08:24:06;6;6;
73973;PMS5003;62336;-26.094;27.994;2023-02-13T08:26:32;5;5;
73973;PMS5003;62336;-26.094;27.994;2023-02-13T08:28:58;6;6;
73973;PMS5003;62336;-26.094;27.994;2023-02-13T08:31:24;7;7;
73973;PMS5003;62336;-26.094;27.994;2023-02-13T08:33:49;7;7;
73973;PMS5003;62336;-26.094;27.994;2023-02-13T08:36:14;6;6;
73973;PMS5003;62336;-26.094;27.994;2023-02-13T08:38:41;7;6;
73973;PMS5003;62336;-26.094;27.994;2023-02-13T08:41:07;7;7;
73973;PMS5003;62336;-26.094;27.994;2023-02-13T08:43:33;6;6;
73973;PMS5003;62336;-26.094;27.994;2023-02-13T08:45:58;6;6;
73973;PMS5003;62336;-26.094;27.994;2023-02-13T08:48:24;4;4;
73973;PMS5003;62336;-26.094;27.994;2023-02-13T08:50:50;6;6;
73973;PMS5003;62336;-26.094;27.994;2023-02-13T08:53:15;4;4;
73973;PMS5003;62336;-26.094;27.994;2023-02-13T08:55:41;7;6;
73973;PMS5003;62336;-26.094;27.994;2023-02-13T08:58:07;5;5;
73973;PMS5003;62336;-26.094;27.994;2023-02-13T09:00:33;5;5;
73973;PMS5003;62336;-26.094;27.994;2023-02-13T09:03:00;5;5;
73973;PMS5003;62336;-26.094;27.994;2023-02-13T09:05:24;4;4;
73973;PMS5003;62336;-26.094;27.994;2023-02-13T09:07:51;2;1;
73973;PMS5003;62336;-26.094;27.994;2023-02-13T09:10:16;2;2;
73973;PMS5003;62336;-26.094;27.994;2023-02-13T09:12:42;1;1;
73973;PMS5003;62336;-26.094;27.994;2023-02-13T09:15:08;2;2;
73973;PMS5003;62336;-26.094;27.994;2023-02-13T09:17:34;2;2;
73973;PMS5003;62336;-26.094;27.994;2023-02-13T09:19:59;2;2;
73973;PMS5003;62336;-26.094;27.994;2023-02-13T09:22:25;2;2;
73973;PMS5003;62336;-26.094;27.994;2023-02-13T09:24:51;1;1;
73973;PMS5003;62336;-26.094;27.994;2023-02-13T09:27:17;3;3;
73973;PMS5003;62336;-26.094;27.994;2023-02-13T09:29:42;3;2;
73973;PMS5003;62336;-26.094;27.994;2023-02-13T09:32:08;5;5;
73973;PMS5003;62336;-26.094;27.994;2023-02-13T09:34:33;4;4;
73973;PMS5003;62336;-26.094;27.994;2023-02-13T09:36:59;4;4;
73973;PMS5003;62336;-26.094;27.994;2023-02-13T09:39:25;3;3;
73973;PMS5003;62336;-26.094;27.994;2023-02-13T09:41:51;3;3;
73973;PMS5003;62336;-26.094;27.994;2023-02-13T09:44:17;5;3;
73973;PMS5003;62336;-26.094;27.994;2023-02-13T09:46:42;4;4;
73973;PMS5003;62336;-26.094;27.994;2023-02-13T09:49:10;4;4;
73973;PMS5003;62336;-26.094;27.994;2023-02-13T09:51:35;4;4;
73973;PMS5003;62336;-26.094;27.994;2023-02-13T09:54:01;4;4;
73973;PMS5003;62336;-26.094;27.994;2023-02-13T09:56:32;4;4;
73973;PMS5003;62336;-26.094;27.994;2023-02-13T09:58:53;3;3;
73973;PMS5003;62336;-26.094;27.994;2023-02-13T10:01:22;3;3;
73973;PMS5003;62336;-26.094;27.994;2023-02-13T10:03:44;2;2;
73973;PMS5003;62336;-26.094;27.994;2023-02-13T10:06:10;2;2;
73973;PMS5003;62336;-26.094;27.994;2023-02-13T10:08:46;2;2;
73973;PMS5003;62336;-26.094;27.994;2023-02-13T10:12:02;5;5;
73973;PMS5003;62336;-26.094;27.994;2023-02-13T10:14:22;4;4;
73973;PMS5003;62336;-26.094;27.994;2023-02-13T10:16:46;3;2;
73973;PMS5003;62336;-26.094;27.994;2023-02-13T10:19:14;3;2;
73973;PMS5003;62336;-26.094;27.994;2023-02-13T10:21:39;2;2;
73973;PMS5003;62336;-26.094;27.994;2023-02-13T10:24:04;2;2;
73973;PMS5003;62336;-26.094;27.994;2023-02-13T10:26:30;1;1;
73973;PMS5003;62336;-26.094;27.994;2023-02-13T10:28:56;3;3;
73973;PMS5003;62336;-26.094;27.994;2023-02-13T10:31:21;4;4;
73973;PMS5003;62336;-26.094;27.994;2023-02-13T10:33:48;7;7;
73973;PMS5003;62336;-26.094;27.994;2023-02-13T10:36:15;5;4;
73973;PMS5003;62336;-26.094;27.994;2023-02-13T10:38:39;4;4;
73973;PMS5003;62336;-26.094;27.994;2023-02-13T10:41:07;4;3;
73973;PMS5003;62336;-26.094;27.994;2023-02-13T10:43:31;3;3;
73973;PMS5003;62336;-26.094;27.994;2023-02-13T10:45:57;3;3;
73973;PMS5003;62336;-26.094;27.994;2023-02-13T10:48:26;4;4;
73973;PMS5003;62336;-26.094;27.994;2023-02-13T10:50:50;4;4;
73973;PMS5003;62336;-26.094;27.994;2023-02-13T10:53:14;5;5;
73973;PMS5003;62336;-26.094;27.994;2023-02-13T10:55:48;3;3;
73973;PMS5003;62336;-26.094;27.994;2023-02-13T10:58:06;4;3;
73973;PMS5003;62336;-26.094;27.994;2023-02-13T11:00:32;3;3;
73973;PMS5003;62336;-26.094;27.994;2023-02-13T11:02:56;3;3;
73973;PMS5003;62336;-26.094;27.994;2023-02-13T11:05:22;5;5;
73973;PMS5003;62336;-26.094;27.994;2023-02-13T11:07:48;3;3;
73973;PMS5003;62336;-26.094;27.994;2023-02-13T11:10:14;3;2;
73973;PMS5003;62336;-26.094;27.994;2023-02-13T11:12:39;3;3;
73973;PMS5003;62336;-26.094;27.994;2023-02-13T11:15:06;3;3;
73973;PMS5003;62336;-26.094;27.994;2023-02-13T11:17:31;4;4;
73973;PMS5003;62336;-26.094;27.994;2023-02-13T11:19:57;4;4;
73973;PMS5003;62336;-26.094;27.994;2023-02-13T11:22:29;3;3;
73973;PMS5003;62336;-26.094;27.994;2023-02-13T11:24:50;3;3;
73973;PMS5003;62336;-26.094;27.994;2023-02-13T11:27:14;4;4;
73973;PMS5003;62336;-26.094;27.994;2023-02-13T11:32:07;3;3;
73973;PMS5003;62336;-26.094;27.994;2023-02-13T11:34:31;4;4;
73973;PMS5003;62336;-26.094;27.994;2023-02-13T11:39:24;3;2;
73973;PMS5003;62336;-26.094;27.994;2023-02-13T11:41:48;2;2;
73973;PMS5003;62336;-26.094;27.994;2023-02-13T11:44:19;3;3;
73973;PMS5003;62336;-26.094;27.994;2023-02-13T11:46:42;5;4;
73973;PMS5003;62336;-26.094;27.994;2023-02-13T11:49:11;4;4;
73973;PMS5003;62336;-26.094;27.994;2023-02-13T11:51:35;4;4;
73973;PMS5003;62336;-26.094;27.994;2023-02-13T11:53:57;5;5;
73973;PMS5003;62336;-26.094;27.994;2023-02-13T11:56:23;4;4;
73973;PMS5003;62336;-26.094;27.994;2023-02-13T11:58:49;5;5;
73973;PMS5003;62336;-26.094;27.994;2023-02-13T12:01:24;3;3;
73973;PMS5003;62336;-26.094;27.994;2023-02-13T12:03:41;6;6;
73973;PMS5003;62336;-26.094;27.994;2023-02-13T12:06:10;4;4;
73973;PMS5003;62336;-26.094;27.994;2023-02-13T12:08:33;4;4;
73973;PMS5003;62336;-26.094;27.994;2023-02-13T12:11:00;9;9;
73973;PMS5003;62336;-26.094;27.994;2023-02-13T12:13:26;5;5;
73973;PMS5003;62336;-26.094;27.994;2023-02-13T12:15:57;6;6;
73973;PMS5003;62336;-26.094;27.994;2023-02-13T12:18:18;6;6;
73973;PMS5003;62336;-26.094;27.994;2023-02-13T12:20:45;7;7;
73973;PMS5003;62336;-26.094;27.994;2023-02-13T12:23:11;5;5;
73973;PMS5003;62336;-26.094;27.994;2023-02-13T12:25:37;5;5;
73973;PMS5003;62336;-26.094;27.994;2023-02-13T12:28:08;7;7;
73973;PMS5003;62336;-26.094;27.994;2023-02-13T12:30:35;7;7;
73973;PMS5003;62336;-26.094;27.994;2023-02-13T12:32:53;5;5;
73973;PMS5003;62336;-26.094;27.994;2023-02-13T12:37:51;8;7;
73973;PMS5003;62336;-26.094;27.994;2023-02-13T12:42:37;6;5;
73973;PMS5003;62336;-26.094;27.994;2023-02-13T12:45:04;5;5;
73973;PMS5003;62336;-26.094;27.994;2023-02-13T12:47:27;4;4;
73973;PMS5003;62336;-26.094;27.994;2023-02-13T12:49:59;6;6;
73973;PMS5003;62336;-26.094;27.994;2023-02-13T12:52:22;6;6;
73973;PMS5003;62336;-26.094;27.994;2023-02-13T12:54:46;5;5;
73973;PMS5003;62336;-26.094;27.994;2023-02-13T12:57:12;5;5;
73973;PMS5003;62336;-26.094;27.994;2023-02-13T12:59:39;6;5;
73973;PMS5003;62336;-26.094;27.994;2023-02-13T13:04:30;7;7;
73973;PMS5003;62336;-26.094;27.994;2023-02-13T13:06:57;5;5;
73973;PMS5003;62336;-26.094;27.994;2023-02-13T13:14:11;7;6;
73973;PMS5003;62336;-26.094;27.994;2023-02-13T13:16:38;5;5;
73973;PMS5003;62336;-26.094;27.994;2023-02-13T13:19:04;6;6;
73973;PMS5003;62336;-26.094;27.994;2023-02-13T13:21:30;5;5;
73973;PMS5003;62336;-26.094;27.994;2023-02-13T13:23:54;6;6;
73973;PMS5003;62336;-26.094;27.994;2023-02-13T13:26:20;8;8;
73973;PMS5003;62336;-26.094;27.994;2023-02-13T13:28:45;7;7;
73973;PMS5003;62336;-26.094;27.994;2023-02-13T13:31:10;7;6;
73973;PMS5003;62336;-26.094;27.994;2023-02-13T13:33:38;5;5;
73973;PMS5003;62336;-26.094;27.994;2023-02-13T13:36:03;7;7;
73973;PMS5003;62336;-26.094;27.994;2023-02-13T13:38:32;7;6;
73973;PMS5003;62336;-26.094;27.994;2023-02-13T13:40:55;7;7;
73973;PMS5003;62336;-26.094;27.994;2023-02-13T13:43:21;7;7;
73973;PMS5003;62336;-26.094;27.994;2023-02-13T13:45:46;6;6;
73973;PMS5003;62336;-26.094;27.994;2023-02-13T13:50:38;9;9;
73973;PMS5003;62336;-26.094;27.994;2023-02-13T13:53:07;9;9;
73973;PMS5003;62336;-26.094;27.994;2023-02-13T13:57:59;7;7;
73973;PMS5003;62336;-26.094;27.994;2023-02-13T14:00:26;7;7;
73973;PMS5003;62336;-26.094;27.994;2023-02-13T14:02:46;7;7;
73973;PMS5003;62336;-26.094;27.994;2023-02-13T14:07:37;8;8;
73973;PMS5003;62336;-26.094;27.994;2023-02-13T14:10:02;9;9;
73973;PMS5003;62336;-26.094;27.994;2023-02-13T14:12:37;9;8;
73973;PMS5003;62336;-26.094;27.994;2023-02-13T14:14:54;8;8;
73973;PMS5003;62336;-26.094;27.994;2023-02-13T14:19:46;10;9;
73973;PMS5003;62336;-26.094;27.994;2023-02-13T14:24:37;10;10;
73973;PMS5003;62336;-26.094;27.994;2023-02-13T14:27:02;15;15;
73973;PMS5003;62336;-26.094;27.994;2023-02-13T14:29:29;10;9;
73973;PMS5003;62336;-26.094;27.994;2023-02-13T14:31:58;10;10;
73973;PMS5003;62336;-26.094;27.994;2023-02-13T14:34:20;11;11;
73973;PMS5003;62336;-26.094;27.994;2023-02-13T14:36:45;11;11;
73973;PMS5003;62336;-26.094;27.994;2023-02-13T14:39:17;11;10;
73973;PMS5003;62336;-26.094;27.994;2023-02-13T14:41:41;9;9;
73973;PMS5003;62336;-26.094;27.994;2023-02-13T14:44:03;14;14;
73973;PMS5003;62336;-26.094;27.994;2023-02-13T14:46:32;15;14;
73973;PMS5003;62336;-26.094;27.994;2023-02-13T14:48:55;14;13;
73973;PMS5003;62336;-26.094;27.994;2023-02-13T14:51:20;12;10;
73973;PMS5003;62336;-26.094;27.994;2023-02-13T14:53:46;11;11;
73973;PMS5003;62336;-26.094;27.994;2023-02-13T14:56:12;10;10;
73973;PMS5003;62336;-26.094;27.994;2023-02-13T14:58:46;10;10;
73973;PMS5003;62336;-26.094;27.994;2023-02-13T15:01:02;11;10;
73973;PMS5003;62336;-26.094;27.994;2023-02-13T15:03:28;8;8;
73973;PMS5003;62336;-26.094;27.994;2023-02-13T15:05:53;8;8;
73973;PMS5003;62336;-26.094;27.994;2023-02-13T15:08:19;7;7;
73973;PMS5003;62336;-26.094;27.994;2023-02-13T15:10:45;8;8;
73973;PMS5003;62336;-26.094;27.994;2023-02-13T15:13:13;11;11;
73973;PMS5003;62336;-26.094;27.994;2023-02-13T15:15:36;11;11;
73973;PMS5003;62336;-26.094;27.994;2023-02-13T15:18:02;12;12;
73973;PMS5003;62336;-26.094;27.994;2023-02-13T15:20:29;11;10;
73973;PMS5003;62336;-26.094;27.994;2023-02-13T15:22:53;9;9;
73973;PMS5003;62336;-26.094;27.994;2023-02-13T15:25:21;8;8;
73973;PMS5003;62336;-26.094;27.994;2023-02-13T15:27:45;10;10;
73973;PMS5003;62336;-26.094;27.994;2023-02-13T15:30:17;8;8;
73973;PMS5003;62336;-26.094;27.994;2023-02-13T15:32:37;8;8;
73973;PMS5003;62336;-26.094;27.994;2023-02-13T15:37:29;7;6;
73973;PMS5003;62336;-26.094;27.994;2023-02-13T15:39:54;8;8;
73973;PMS5003;62336;-26.094;27.994;2023-02-13T15:42:19;5;5;
73973;PMS5003;62336;-26.094;27.994;2023-02-13T15:44:46;7;6;
73973;PMS5003;62336;-26.094;27.994;2023-02-13T15:47:14;6;6;
73973;PMS5003;62336;-26.094;27.994;2023-02-13T15:49:38;7;7;
73973;PMS5003;62336;-26.094;27.994;2023-02-13T15:52:04;9;9;
73973;PMS5003;62336;-26.094;27.994;2023-02-13T15:54:29;8;8;
73973;PMS5003;62336;-26.094;27.994;2023-02-13T15:56:55;7;7;
73973;PMS5003;62336;-26.094;27.994;2023-02-13T15:59:19;7;7;
73973;PMS5003;62336;-26.094;27.994;2023-02-13T16:01:45;5;5;
73973;PMS5003;62336;-26.094;27.994;2023-02-13T16:04:12;9;7;
73973;PMS5003;62336;-26.094;27.994;2023-02-13T16:06:37;8;7;
73973;PMS5003;62336;-26.094;27.994;2023-02-13T16:09:03;8;8;
73973;PMS5003;62336;-26.094;27.994;2023-02-13T16:11:29;10;10;
73973;PMS5003;62336;-26.094;27.994;2023-02-13T16:14:00;7;7;
73973;PMS5003;62336;-26.094;27.994;2023-02-13T16:16:19;9;9;
73973;PMS5003;62336;-26.094;27.994;2023-02-13T16:18:44;6;6;
73973;PMS5003;62336;-26.094;27.994;2023-02-13T16:21:10;8;8;
73973;PMS5003;62336;-26.094;27.994;2023-02-13T16:23:36;7;7;
73973;PMS5003;62336;-26.094;27.994;2023-02-13T16:26:02;10;10;
73973;PMS5003;62336;-26.094;27.994;2023-02-13T16:28:27;9;8;
73973;PMS5003;62336;-26.094;27.994;2023-02-13T16:30:53;8;8;
73973;PMS5003;62336;-26.094;27.994;2023-02-13T16:33:20;9;8;
73973;PMS5003;62336;-26.094;27.994;2023-02-13T16:35:44;9;8;
73973;PMS5003;62336;-26.094;27.994;2023-02-13T16:40:38;8;7;
73973;PMS5003;62336;-26.094;27.994;2023-02-13T16:45:26;8;8;
73973;PMS5003;62336;-26.094;27.994;2023-02-13T16:50:20;11;10;
73973;PMS5003;62336;-26.094;27.994;2023-02-13T16:52:44;14;12;
73973;PMS5003;62336;-26.094;27.994;2023-02-13T16:55:12;13;13;
73973;PMS5003;62336;-26.094;27.994;2023-02-13T16:57:35;14;13;
73973;PMS5003;62336;-26.094;27.994;2023-02-13T17:00:03;11;11;
73973;PMS5003;62336;-26.094;27.994;2023-02-13T17:02:27;17;17;
73973;PMS5003;62336;-26.094;27.994;2023-02-13T17:04:53;20;17;
73973;PMS5003;62336;-26.094;27.994;2023-02-13T17:07:18;16;15;
73973;PMS5003;62336;-26.094;27.994;2023-02-13T17:09:43;17;16;
73973;PMS5003;62336;-26.094;27.994;2023-02-13T17:12:11;16;15;
73973;PMS5003;62336;-26.094;27.994;2023-02-13T17:14:35;18;17;
73973;PMS5003;62336;-26.094;27.994;2023-02-13T17:16:59;19;18;
73973;PMS5003;62336;-26.094;27.994;2023-02-13T17:19:25;19;18;
73973;PMS5003;62336;-26.094;27.994;2023-02-13T17:21:51;20;19;
73973;PMS5003;62336;-26.094;27.994;2023-02-13T17:24:16;21;18;
73973;PMS5003;62336;-26.094;27.994;2023-02-13T17:26:42;18;17;
73973;PMS5003;62336;-26.094;27.994;2023-02-13T17:29:08;21;17;
73973;PMS5003;62336;-26.094;27.994;2023-02-13T17:31:34;17;16;
73973;PMS5003;62336;-26.094;27.994;2023-02-13T17:33:59;19;17;
73973;PMS5003;62336;-26.094;27.994;2023-02-13T17:36:25;18;18;
73973;PMS5003;62336;-26.094;27.994;2023-02-13T17:38:51;19;19;
73973;PMS5003;62336;-26.094;27.994;2023-02-13T17:41:16;18;16;
73973;PMS5003;62336;-26.094;27.994;2023-02-13T17:43:42;19;18;
73973;PMS5003;62336;-26.094;27.994;2023-02-13T17:46:08;18;17;
73973;PMS5003;62336;-26.094;27.994;2023-02-13T17:48:33;19;19;
73973;PMS5003;62336;-26.094;27.994;2023-02-13T17:50:58;19;17;
73973;PMS5003;62336;-26.094;27.994;2023-02-13T17:53:25;17;16;
73973;PMS5003;62336;-26.094;27.994;2023-02-13T17:55:49;22;21;
73973;PMS5003;62336;-26.094;27.994;2023-02-13T17:58:15;20;20;
73973;PMS5003;62336;-26.094;27.994;2023-02-13T18:00:40;18;18;
73973;PMS5003;62336;-26.094;27.994;2023-02-13T18:03:05;26;25;
73973;PMS5003;62336;-26.094;27.994;2023-02-13T18:05:31;23;23;
73973;PMS5003;62336;-26.094;27.994;2023-02-13T18:07:56;21;20;
73973;PMS5003;62336;-26.094;27.994;2023-02-13T18:10:23;24;22;
73973;PMS5003;62336;-26.094;27.994;2023-02-13T18:13:21;23;23;
73973;PMS5003;62336;-26.094;27.994;2023-02-13T18:15:40;25;24;
73973;PMS5003;62336;-26.094;27.994;2023-02-13T18:18:05;26;23;
73973;PMS5003;62336;-26.094;27.994;2023-02-13T18:20:31;24;23;
73973;PMS5003;62336;-26.094;27.994;2023-02-13T18:22:56;22;20;
73973;PMS5003;62336;-26.094;27.994;2023-02-13T18:25:22;28;26;
73973;PMS5003;62336;-26.094;27.994;2023-02-13T18:27:46;25;24;
73973;PMS5003;62336;-26.094;27.994;2023-02-13T18:30:13;26;25;
73973;PMS5003;62336;-26.094;27.994;2023-02-13T18:32:37;25;24;
73973;PMS5003;62336;-26.094;27.994;2023-02-13T18:35:03;30;27;
73973;PMS5003;62336;-26.094;27.994;2023-02-13T18:37:28;36;35;
73973;PMS5003;62336;-26.094;27.994;2023-02-13T18:39:53;27;27;
73973;PMS5003;62336;-26.094;27.994;2023-02-13T18:42:18;33;31;
73973;PMS5003;62336;-26.094;27.994;2023-02-13T18:44:43;29;28;
73973;PMS5003;62336;-26.094;27.994;2023-02-13T18:47:09;29;28;
73973;PMS5003;62336;-26.094;27.994;2023-02-13T18:49:35;28;28;
73973;PMS5003;62336;-26.094;27.994;2023-02-13T18:52:00;33;30;
73973;PMS5003;62336;-26.094;27.994;2023-02-13T18:54:26;39;34;
73973;PMS5003;62336;-26.094;27.994;2023-02-13T18:56:51;31;30;
73973;PMS5003;62336;-26.094;27.994;2023-02-13T18:59:17;31;28;
73973;PMS5003;62336;-26.094;27.994;2023-02-13T19:01:42;33;29;
73973;PMS5003;62336;-26.094;27.994;2023-02-13T19:04:08;26;25;
73973;PMS5003;62336;-26.094;27.994;2023-02-13T19:06:32;26;26;
73973;PMS5003;62336;-26.094;27.994;2023-02-13T19:08:58;26;25;
73973;PMS5003;62336;-26.094;27.994;2023-02-13T19:11:24;28;27;
73973;PMS5003;62336;-26.094;27.994;2023-02-13T19:13:51;23;22;
73973;PMS5003;62336;-26.094;27.994;2023-02-13T19:16:15;28;26;
73973;PMS5003;62336;-26.094;27.994;2023-02-13T19:18:40;28;26;
73973;PMS5003;62336;-26.094;27.994;2023-02-13T19:21:06;24;23;
73973;PMS5003;62336;-26.094;27.994;2023-02-13T19:23:31;30;28;
73973;PMS5003;62336;-26.094;27.994;2023-02-13T19:25:57;27;25;
73973;PMS5003;62336;-26.094;27.994;2023-02-13T19:28:22;26;26;
73973;PMS5003;62336;-26.094;27.994;2023-02-13T19:30:47;24;24;
73973;PMS5003;62336;-26.094;27.994;2023-02-13T19:33:12;27;27;
73973;PMS5003;62336;-26.094;27.994;2023-02-13T19:35:37;31;28;
73973;PMS5003;62336;-26.094;27.994;2023-02-13T19:38:03;31;28;
73973;PMS5003;62336;-26.094;27.994;2023-02-13T19:40:28;25;25;
73973;PMS5003;62336;-26.094;27.994;2023-02-13T19:42:54;28;25;
73973;PMS5003;62336;-26.094;27.994;2023-02-13T19:45:19;30;28;
73973;PMS5003;62336;-26.094;27.994;2023-02-13T19:47:45;29;27;
73973;PMS5003;62336;-26.094;27.994;2023-02-13T19:50:10;21;21;
73973;PMS5003;62336;-26.094;27.994;2023-02-13T19:52:35;21;21;
73973;PMS5003;62336;-26.094;27.994;2023-02-13T19:55:01;22;22;
